sensor_id;sensor_type;location;lat;lon;timestamp;P1;durP1;ratioP1;P2;durP2;ratioP2
28968;SDS011;16076;51.194;6.642;2022-12-07T00:00:04;42.47;;;23.58;;
28968;SDS011;16076;51.194;6.642;2022-12-07T00:02:30;42.95;;;23.30;;
28968;SDS011;16076;51.194;6.642;2022-12-07T00:04:56;41.80;;;24.08;;
28968;SDS011;16076;51.194;6.642;2022-12-07T00:07:24;47.47;;;23.63;;
28968;SDS011;16076;51.194;6.642;2022-12-07T00:09:49;54.70;;;26.15;;
28968;SDS011;16076;51.194;6.642;2022-12-07T00:12:15;42.03;;;23.95;;
28968;SDS011;16076;51.194;6.642;2022-12-07T00:14:40;41.50;;;22.30;;
28968;SDS011;16076;51.194;6.642;2022-12-07T00:17:06;40.95;;;22.83;;
28968;SDS011;16076;51.194;6.642;2022-12-07T00:19:31;40.40;;;20.33;;
28968;SDS011;16076;51.194;6.642;2022-12-07T00:21:57;41.15;;;21.23;;
28968;SDS011;16076;51.194;6.642;2022-12-07T00:24:23;40.50;;;20.60;;
28968;SDS011;16076;51.194;6.642;2022-12-07T00:26:48;43.50;;;21.42;;
28968;SDS011;16076;51.194;6.642;2022-12-07T00:29:20;38.97;;;21.85;;
28968;SDS011;16076;51.194;6.642;2022-12-07T00:31:47;40.60;;;20.92;;
28968;SDS011;16076;51.194;6.642;2022-12-07T00:34:14;33.28;;;19.33;;
28968;SDS011;16076;51.194;6.642;2022-12-07T00:39:10;34.42;;;18.42;;
28968;SDS011;16076;51.194;6.642;2022-12-07T00:41:35;37.22;;;20.73;;
28968;SDS011;16076;51.194;6.642;2022-12-07T00:44:01;34.67;;;20.17;;
28968;SDS011;16076;51.194;6.642;2022-12-07T00:46:27;43.40;;;20.58;;
28968;SDS011;16076;51.194;6.642;2022-12-07T00:48:53;37.28;;;19.95;;
28968;SDS011;16076;51.194;6.642;2022-12-07T00:51:20;37.40;;;20.35;;
28968;SDS011;16076;51.194;6.642;2022-12-07T00:53:46;32.65;;;19.20;;
28968;SDS011;16076;51.194;6.642;2022-12-07T00:56:22;43.08;;;20.45;;
28968;SDS011;16076;51.194;6.642;2022-12-07T00:58:50;39.60;;;20.42;;
28968;SDS011;16076;51.194;6.642;2022-12-07T01:01:21;21.95;;;13.30;;
28968;SDS011;16076;51.194;6.642;2022-12-07T01:03:49;33.75;;;19.45;;
28968;SDS011;16076;51.194;6.642;2022-12-07T01:06:16;35.65;;;19.05;;
28968;SDS011;16076;51.194;6.642;2022-12-07T01:08:42;39.55;;;19.48;;
28968;SDS011;16076;51.194;6.642;2022-12-07T01:11:09;34.42;;;18.08;;
28968;SDS011;16076;51.194;6.642;2022-12-07T01:13:38;34.90;;;19.30;;
28968;SDS011;16076;51.194;6.642;2022-12-07T01:16:04;40.10;;;19.70;;
28968;SDS011;16076;51.194;6.642;2022-12-07T01:18:31;34.50;;;19.40;;
28968;SDS011;16076;51.194;6.642;2022-12-07T01:21:06;38.75;;;20.73;;
28968;SDS011;16076;51.194;6.642;2022-12-07T01:23:32;35.20;;;20.63;;
28968;SDS011;16076;51.194;6.642;2022-12-07T01:25:59;34.97;;;20.48;;
28968;SDS011;16076;51.194;6.642;2022-12-07T01:28:26;36.50;;;21.38;;
28968;SDS011;16076;51.194;6.642;2022-12-07T01:30:59;40.30;;;22.98;;
28968;SDS011;16076;51.194;6.642;2022-12-07T01:33:42;41.55;;;21.85;;
28968;SDS011;16076;51.194;6.642;2022-12-07T01:36:14;48.47;;;22.83;;
28968;SDS011;16076;51.194;6.642;2022-12-07T01:38:47;36.60;;;21.33;;
28968;SDS011;16076;51.194;6.642;2022-12-07T01:41:16;42.35;;;22.20;;
28968;SDS011;16076;51.194;6.642;2022-12-07T01:46:41;41.95;;;22.75;;
28968;SDS011;16076;51.194;6.642;2022-12-07T01:49:17;38.78;;;22.33;;
28968;SDS011;16076;51.194;6.642;2022-12-07T01:51:47;40.67;;;20.45;;
28968;SDS011;16076;51.194;6.642;2022-12-07T01:54:16;37.35;;;21.58;;
28968;SDS011;16076;51.194;6.642;2022-12-07T01:56:43;39.63;;;22.40;;
28968;SDS011;16076;51.194;6.642;2022-12-07T01:59:14;31.60;;;19.23;;
28968;SDS011;16076;51.194;6.642;2022-12-07T02:01:42;39.05;;;21.50;;
28968;SDS011;16076;51.194;6.642;2022-12-07T02:04:07;45.08;;;22.48;;
28968;SDS011;16076;51.194;6.642;2022-12-07T02:06:33;36.83;;;22.23;;
28968;SDS011;16076;51.194;6.642;2022-12-07T02:09:01;43.83;;;22.42;;
28968;SDS011;16076;51.194;6.642;2022-12-07T02:11:27;41.30;;;23.13;;
28968;SDS011;16076;51.194;6.642;2022-12-07T02:13:53;45.08;;;23.88;;
28968;SDS011;16076;51.194;6.642;2022-12-07T02:16:28;40.70;;;23.30;;
28968;SDS011;16076;51.194;6.642;2022-12-07T02:31:00;41.10;;;23.02;;
28968;SDS011;16076;51.194;6.642;2022-12-07T02:33:37;43.95;;;23.83;;
28968;SDS011;16076;51.194;6.642;2022-12-07T02:36:10;44.17;;;23.13;;
28968;SDS011;16076;51.194;6.642;2022-12-07T02:38:47;40.38;;;21.92;;
28968;SDS011;16076;51.194;6.642;2022-12-07T02:43:54;43.25;;;23.10;;
28968;SDS011;16076;51.194;6.642;2022-12-07T02:46:27;41.25;;;22.92;;
28968;SDS011;16076;51.194;6.642;2022-12-07T02:48:56;40.35;;;22.15;;
28968;SDS011;16076;51.194;6.642;2022-12-07T02:51:25;51.28;;;23.42;;
28968;SDS011;16076;51.194;6.642;2022-12-07T02:53:51;46.35;;;23.77;;
28968;SDS011;16076;51.194;6.642;2022-12-07T03:07:23;36.55;;;21.35;;
28968;SDS011;16076;51.194;6.642;2022-12-07T03:12:46;37.50;;;22.33;;
28968;SDS011;16076;51.194;6.642;2022-12-07T03:18:27;42.67;;;21.40;;
28968;SDS011;16076;51.194;6.642;2022-12-07T03:21:01;50.08;;;23.30;;
28968;SDS011;16076;51.194;6.642;2022-12-07T03:23:30;38.70;;;22.73;;
28968;SDS011;16076;51.194;6.642;2022-12-07T03:25:58;41.15;;;22.08;;
28968;SDS011;16076;51.194;6.642;2022-12-07T03:28:27;42.28;;;22.02;;
28968;SDS011;16076;51.194;6.642;2022-12-07T03:33:33;41.38;;;24.20;;
28968;SDS011;16076;51.194;6.642;2022-12-07T03:36:38;42.63;;;21.98;;
28968;SDS011;16076;51.194;6.642;2022-12-07T03:39:21;50.03;;;23.40;;
28968;SDS011;16076;51.194;6.642;2022-12-07T03:41:54;40.33;;;22.15;;
28968;SDS011;16076;51.194;6.642;2022-12-07T03:44:22;48.58;;;23.70;;
28968;SDS011;16076;51.194;6.642;2022-12-07T03:47:01;46.15;;;23.85;;
28968;SDS011;16076;51.194;6.642;2022-12-07T03:52:31;43.72;;;22.33;;
28968;SDS011;16076;51.194;6.642;2022-12-07T03:55:16;38.63;;;19.67;;
28968;SDS011;16076;51.194;6.642;2022-12-07T03:57:46;37.20;;;20.75;;
28968;SDS011;16076;51.194;6.642;2022-12-07T04:00:14;42.45;;;22.10;;
28968;SDS011;16076;51.194;6.642;2022-12-07T04:02:40;38.70;;;19.38;;
28968;SDS011;16076;51.194;6.642;2022-12-07T04:05:06;36.83;;;20.13;;
28968;SDS011;16076;51.194;6.642;2022-12-07T04:07:33;37.70;;;20.05;;
28968;SDS011;16076;51.194;6.642;2022-12-07T04:09:58;40.40;;;21.05;;
28968;SDS011;16076;51.194;6.642;2022-12-07T04:12:26;35.20;;;19.88;;
28968;SDS011;16076;51.194;6.642;2022-12-07T04:14:52;35.35;;;20.15;;
28968;SDS011;16076;51.194;6.642;2022-12-07T04:17:22;37.05;;;20.13;;
28968;SDS011;16076;51.194;6.642;2022-12-07T04:19:48;38.30;;;20.13;;
28968;SDS011;16076;51.194;6.642;2022-12-07T04:22:13;33.35;;;18.48;;
28968;SDS011;16076;51.194;6.642;2022-12-07T04:24:39;40.50;;;19.17;;
28968;SDS011;16076;51.194;6.642;2022-12-07T04:27:04;34.83;;;19.10;;
28968;SDS011;16076;51.194;6.642;2022-12-07T04:29:30;39.25;;;19.13;;
28968;SDS011;16076;51.194;6.642;2022-12-07T04:31:56;35.42;;;19.60;;
28968;SDS011;16076;51.194;6.642;2022-12-07T04:34:21;35.00;;;20.80;;
28968;SDS011;16076;51.194;6.642;2022-12-07T04:36:49;32.47;;;19.48;;
28968;SDS011;16076;51.194;6.642;2022-12-07T04:39:21;37.50;;;20.63;;
28968;SDS011;16076;51.194;6.642;2022-12-07T04:41:49;39.38;;;20.27;;
28968;SDS011;16076;51.194;6.642;2022-12-07T04:44:15;37.17;;;18.98;;
28968;SDS011;16076;51.194;6.642;2022-12-07T04:46:42;44.53;;;19.17;;
28968;SDS011;16076;51.194;6.642;2022-12-07T04:49:08;37.05;;;19.55;;
28968;SDS011;16076;51.194;6.642;2022-12-07T04:51:34;38.03;;;20.52;;
28968;SDS011;16076;51.194;6.642;2022-12-07T04:54:02;35.25;;;19.38;;
28968;SDS011;16076;51.194;6.642;2022-12-07T04:56:28;34.90;;;18.38;;
28968;SDS011;16076;51.194;6.642;2022-12-07T04:58:54;33.15;;;18.90;;
28968;SDS011;16076;51.194;6.642;2022-12-07T05:01:20;33.42;;;18.52;;
28968;SDS011;16076;51.194;6.642;2022-12-07T05:03:47;38.47;;;19.25;;
28968;SDS011;16076;51.194;6.642;2022-12-07T05:06:13;30.13;;;18.48;;
28968;SDS011;16076;51.194;6.642;2022-12-07T05:08:39;29.45;;;17.38;;
28968;SDS011;16076;51.194;6.642;2022-12-07T05:11:08;35.33;;;17.48;;
28968;SDS011;16076;51.194;6.642;2022-12-07T05:13:35;33.28;;;17.77;;
28968;SDS011;16076;51.194;6.642;2022-12-07T05:16:03;28.02;;;17.35;;
28968;SDS011;16076;51.194;6.642;2022-12-07T05:18:28;29.58;;;16.63;;
28968;SDS011;16076;51.194;6.642;2022-12-07T05:20:54;28.38;;;16.63;;
28968;SDS011;16076;51.194;6.642;2022-12-07T05:23:20;31.83;;;16.10;;
28968;SDS011;16076;51.194;6.642;2022-12-07T05:25:47;31.75;;;15.63;;
28968;SDS011;16076;51.194;6.642;2022-12-07T05:28:13;31.33;;;16.75;;
28968;SDS011;16076;51.194;6.642;2022-12-07T05:30:39;27.92;;;16.17;;
28968;SDS011;16076;51.194;6.642;2022-12-07T05:33:04;34.22;;;17.60;;
28968;SDS011;16076;51.194;6.642;2022-12-07T05:35:32;35.05;;;17.80;;
28968;SDS011;16076;51.194;6.642;2022-12-07T05:37:57;32.53;;;17.85;;
28968;SDS011;16076;51.194;6.642;2022-12-07T05:40:23;32.75;;;16.73;;
28968;SDS011;16076;51.194;6.642;2022-12-07T05:42:49;33.90;;;17.52;;
28968;SDS011;16076;51.194;6.642;2022-12-07T05:45:17;30.83;;;16.17;;
28968;SDS011;16076;51.194;6.642;2022-12-07T05:47:45;27.77;;;16.30;;
28968;SDS011;16076;51.194;6.642;2022-12-07T05:50:10;35.03;;;16.95;;
28968;SDS011;16076;51.194;6.642;2022-12-07T05:52:36;32.33;;;15.68;;
28968;SDS011;16076;51.194;6.642;2022-12-07T05:55:02;25.58;;;14.25;;
28968;SDS011;16076;51.194;6.642;2022-12-07T05:57:31;27.50;;;14.73;;
28968;SDS011;16076;51.194;6.642;2022-12-07T05:59:59;26.90;;;14.48;;
28968;SDS011;16076;51.194;6.642;2022-12-07T06:02:25;25.17;;;14.60;;
28968;SDS011;16076;51.194;6.642;2022-12-07T06:04:51;25.23;;;15.07;;
28968;SDS011;16076;51.194;6.642;2022-12-07T06:07:16;29.83;;;14.73;;
28968;SDS011;16076;51.194;6.642;2022-12-07T06:09:45;29.52;;;15.15;;
28968;SDS011;16076;51.194;6.642;2022-12-07T06:12:11;30.23;;;15.63;;
28968;SDS011;16076;51.194;6.642;2022-12-07T06:14:56;33.70;;;16.02;;
28968;SDS011;16076;51.194;6.642;2022-12-07T06:17:21;24.92;;;15.00;;
28968;SDS011;16076;51.194;6.642;2022-12-07T06:19:47;30.15;;;15.95;;
28968;SDS011;16076;51.194;6.642;2022-12-07T06:22:13;28.52;;;15.07;;
28968;SDS011;16076;51.194;6.642;2022-12-07T06:24:39;31.70;;;16.42;;
28968;SDS011;16076;51.194;6.642;2022-12-07T06:27:05;32.60;;;15.82;;
28968;SDS011;16076;51.194;6.642;2022-12-07T06:29:31;35.20;;;17.50;;
28968;SDS011;16076;51.194;6.642;2022-12-07T06:31:57;30.00;;;16.90;;
28968;SDS011;16076;51.194;6.642;2022-12-07T06:34:23;31.65;;;16.77;;
28968;SDS011;16076;51.194;6.642;2022-12-07T06:36:49;33.28;;;15.23;;
28968;SDS011;16076;51.194;6.642;2022-12-07T06:39:21;27.35;;;15.75;;
28968;SDS011;16076;51.194;6.642;2022-12-07T06:41:48;35.20;;;16.75;;
28968;SDS011;16076;51.194;6.642;2022-12-07T06:44:16;28.80;;;15.27;;
28968;SDS011;16076;51.194;6.642;2022-12-07T06:46:42;36.67;;;16.38;;
28968;SDS011;16076;51.194;6.642;2022-12-07T06:49:08;27.85;;;14.25;;
28968;SDS011;16076;51.194;6.642;2022-12-07T06:51:33;27.08;;;16.08;;
28968;SDS011;16076;51.194;6.642;2022-12-07T06:54:01;31.02;;;16.52;;
28968;SDS011;16076;51.194;6.642;2022-12-07T06:56:28;30.52;;;15.55;;
28968;SDS011;16076;51.194;6.642;2022-12-07T06:58:54;24.65;;;14.00;;
28968;SDS011;16076;51.194;6.642;2022-12-07T07:01:20;26.42;;;12.63;;
28968;SDS011;16076;51.194;6.642;2022-12-07T07:03:46;25.10;;;12.90;;
28968;SDS011;16076;51.194;6.642;2022-12-07T07:06:14;26.52;;;12.63;;
28968;SDS011;16076;51.194;6.642;2022-12-07T07:08:40;22.88;;;13.02;;
28968;SDS011;16076;51.194;6.642;2022-12-07T07:11:06;22.63;;;12.55;;
28968;SDS011;16076;51.194;6.642;2022-12-07T07:13:35;25.13;;;13.48;;
28968;SDS011;16076;51.194;6.642;2022-12-07T07:16:01;27.60;;;14.02;;
28968;SDS011;16076;51.194;6.642;2022-12-07T07:18:27;24.83;;;13.75;;
28968;SDS011;16076;51.194;6.642;2022-12-07T07:20:55;20.13;;;13.45;;
28968;SDS011;16076;51.194;6.642;2022-12-07T07:23:21;21.23;;;12.43;;
28968;SDS011;16076;51.194;6.642;2022-12-07T07:25:47;23.55;;;11.93;;
28968;SDS011;16076;51.194;6.642;2022-12-07T07:28:13;26.77;;;11.65;;
28968;SDS011;16076;51.194;6.642;2022-12-07T07:30:39;24.88;;;12.13;;
28968;SDS011;16076;51.194;6.642;2022-12-07T07:33:05;26.35;;;13.27;;
28968;SDS011;16076;51.194;6.642;2022-12-07T07:35:33;22.73;;;12.73;;
28968;SDS011;16076;51.194;6.642;2022-12-07T07:37:59;20.42;;;13.43;;
28968;SDS011;16076;51.194;6.642;2022-12-07T07:40:25;23.95;;;12.77;;
28968;SDS011;16076;51.194;6.642;2022-12-07T07:42:52;26.08;;;13.00;;
28968;SDS011;16076;51.194;6.642;2022-12-07T07:45:22;20.17;;;10.73;;
28968;SDS011;16076;51.194;6.642;2022-12-07T07:47:49;21.27;;;10.95;;
28968;SDS011;16076;51.194;6.642;2022-12-07T07:50:15;22.20;;;11.02;;
28968;SDS011;16076;51.194;6.642;2022-12-07T07:52:41;15.75;;;9.93;;
28968;SDS011;16076;51.194;6.642;2022-12-07T07:55:08;17.40;;;10.10;;
28968;SDS011;16076;51.194;6.642;2022-12-07T07:57:37;17.42;;;10.88;;
28968;SDS011;16076;51.194;6.642;2022-12-07T08:00:07;21.85;;;9.88;;
28968;SDS011;16076;51.194;6.642;2022-12-07T08:02:37;16.50;;;9.60;;
28968;SDS011;16076;51.194;6.642;2022-12-07T08:05:03;19.83;;;9.35;;
28968;SDS011;16076;51.194;6.642;2022-12-07T08:07:29;20.88;;;10.18;;
28968;SDS011;16076;51.194;6.642;2022-12-07T08:09:55;19.77;;;9.98;;
28968;SDS011;16076;51.194;6.642;2022-12-07T08:12:20;20.45;;;9.93;;
28968;SDS011;16076;51.194;6.642;2022-12-07T08:14:49;17.70;;;10.18;;
28968;SDS011;16076;51.194;6.642;2022-12-07T08:17:17;21.85;;;9.80;;
28968;SDS011;16076;51.194;6.642;2022-12-07T08:19:43;22.77;;;12.18;;
28968;SDS011;16076;51.194;6.642;2022-12-07T08:22:08;20.05;;;11.18;;
28968;SDS011;16076;51.194;6.642;2022-12-07T08:24:34;16.00;;;10.10;;
28968;SDS011;16076;51.194;6.642;2022-12-07T08:27:00;20.20;;;11.05;;
28968;SDS011;16076;51.194;6.642;2022-12-07T08:29:26;21.38;;;10.77;;
28968;SDS011;16076;51.194;6.642;2022-12-07T08:31:54;19.52;;;11.48;;
28968;SDS011;16076;51.194;6.642;2022-12-07T08:34:20;24.98;;;11.25;;
28968;SDS011;16076;51.194;6.642;2022-12-07T08:36:48;23.15;;;11.10;;
28968;SDS011;16076;51.194;6.642;2022-12-07T08:39:13;23.95;;;10.82;;
28968;SDS011;16076;51.194;6.642;2022-12-07T08:41:39;19.02;;;11.30;;
28968;SDS011;16076;51.194;6.642;2022-12-07T08:44:04;20.15;;;11.77;;
28968;SDS011;16076;51.194;6.642;2022-12-07T08:46:31;22.15;;;12.13;;
28968;SDS011;16076;51.194;6.642;2022-12-07T08:49:12;22.02;;;13.50;;
28968;SDS011;16076;51.194;6.642;2022-12-07T08:51:41;25.23;;;13.48;;
28968;SDS011;16076;51.194;6.642;2022-12-07T08:54:09;32.85;;;15.90;;
28968;SDS011;16076;51.194;6.642;2022-12-07T08:56:40;26.53;;;13.33;;
28968;SDS011;16076;51.194;6.642;2022-12-07T08:59:08;32.70;;;13.90;;
28968;SDS011;16076;51.194;6.642;2022-12-07T09:01:34;23.25;;;12.82;;
28968;SDS011;16076;51.194;6.642;2022-12-07T09:04:00;25.42;;;13.25;;
28968;SDS011;16076;51.194;6.642;2022-12-07T09:06:25;24.10;;;12.52;;
28968;SDS011;16076;51.194;6.642;2022-12-07T09:08:54;28.73;;;12.88;;
28968;SDS011;16076;51.194;6.642;2022-12-07T09:11:23;20.88;;;12.02;;
28968;SDS011;16076;51.194;6.642;2022-12-07T09:13:49;25.05;;;11.88;;
28968;SDS011;16076;51.194;6.642;2022-12-07T09:16:14;19.15;;;11.55;;
28968;SDS011;16076;51.194;6.642;2022-12-07T09:18:40;25.02;;;11.70;;
28968;SDS011;16076;51.194;6.642;2022-12-07T09:21:06;24.88;;;12.63;;
28968;SDS011;16076;51.194;6.642;2022-12-07T09:23:32;25.23;;;12.40;;
28968;SDS011;16076;51.194;6.642;2022-12-07T09:26:01;21.88;;;12.45;;
28968;SDS011;16076;51.194;6.642;2022-12-07T09:28:29;26.83;;;14.57;;
28968;SDS011;16076;51.194;6.642;2022-12-07T09:30:56;28.73;;;15.13;;
28968;SDS011;16076;51.194;6.642;2022-12-07T09:33:21;33.83;;;16.88;;
28968;SDS011;16076;51.194;6.642;2022-12-07T09:35:47;29.98;;;16.05;;
28968;SDS011;16076;51.194;6.642;2022-12-07T09:38:14;32.10;;;15.25;;
28968;SDS011;16076;51.194;6.642;2022-12-07T09:40:40;28.55;;;15.88;;
28968;SDS011;16076;51.194;6.642;2022-12-07T09:43:12;27.77;;;14.65;;
28968;SDS011;16076;51.194;6.642;2022-12-07T09:45:40;29.77;;;15.30;;
28968;SDS011;16076;51.194;6.642;2022-12-07T09:48:09;27.08;;;13.77;;
28968;SDS011;16076;51.194;6.642;2022-12-07T09:51:01;29.50;;;13.57;;
28968;SDS011;16076;51.194;6.642;2022-12-07T09:55:58;24.73;;;14.00;;
28968;SDS011;16076;51.194;6.642;2022-12-07T09:58:25;26.67;;;12.75;;
28968;SDS011;16076;51.194;6.642;2022-12-07T10:00:57;23.23;;;14.50;;
28968;SDS011;16076;51.194;6.642;2022-12-07T10:03:29;26.25;;;13.90;;
28968;SDS011;16076;51.194;6.642;2022-12-07T10:05:55;32.40;;;15.50;;
28968;SDS011;16076;51.194;6.642;2022-12-07T10:08:22;34.15;;;13.77;;
28968;SDS011;16076;51.194;6.642;2022-12-07T10:10:52;25.30;;;14.20;;
28968;SDS011;16076;51.194;6.642;2022-12-07T10:19:24;22.25;;;11.07;;
28968;SDS011;16076;51.194;6.642;2022-12-07T10:22:00;29.70;;;11.98;;
28968;SDS011;16076;51.194;6.642;2022-12-07T10:24:30;25.63;;;11.18;;
28968;SDS011;16076;51.194;6.642;2022-12-07T10:26:56;21.20;;;11.38;;
28968;SDS011;16076;51.194;6.642;2022-12-07T10:32:03;22.80;;;12.20;;
28968;SDS011;16076;51.194;6.642;2022-12-07T10:34:49;23.75;;;11.25;;
28968;SDS011;16076;51.194;6.642;2022-12-07T10:37:18;25.83;;;10.93;;
28968;SDS011;16076;51.194;6.642;2022-12-07T10:39:46;23.73;;;10.38;;
28968;SDS011;16076;51.194;6.642;2022-12-07T10:42:25;21.13;;;10.50;;
28968;SDS011;16076;51.194;6.642;2022-12-07T10:47:51;17.13;;;10.82;;
28968;SDS011;16076;51.194;6.642;2022-12-07T11:01:51;21.27;;;8.95;;
28968;SDS011;16076;51.194;6.642;2022-12-07T11:07:27;18.83;;;8.27;;
28968;SDS011;16076;51.194;6.642;2022-12-07T11:21:07;20.65;;;9.82;;
28968;SDS011;16076;51.194;6.642;2022-12-07T11:23:41;21.35;;;10.82;;
28968;SDS011;16076;51.194;6.642;2022-12-07T11:31:37;29.83;;;13.80;;
28968;SDS011;16076;51.194;6.642;2022-12-07T11:34:15;30.08;;;15.27;;
28968;SDS011;16076;51.194;6.642;2022-12-07T11:36:45;27.27;;;17.40;;
28968;SDS011;16076;51.194;6.642;2022-12-07T11:41:43;32.13;;;18.48;;
28968;SDS011;16076;51.194;6.642;2022-12-07T11:52:47;34.35;;;16.08;;
28968;SDS011;16076;51.194;6.642;2022-12-07T12:00:47;22.27;;;12.02;;
28968;SDS011;16076;51.194;6.642;2022-12-07T12:03:17;22.38;;;11.02;;
28968;SDS011;16076;51.194;6.642;2022-12-07T12:05:55;25.67;;;10.77;;
28968;SDS011;16076;51.194;6.642;2022-12-07T12:08:23;17.70;;;9.23;;
28968;SDS011;16076;51.194;6.642;2022-12-07T12:25:21;23.63;;;6.30;;
28968;SDS011;16076;51.194;6.642;2022-12-07T12:27:48;12.18;;;5.13;;
28968;SDS011;16076;51.194;6.642;2022-12-07T12:30:28;14.13;;;5.80;;
28968;SDS011;16076;51.194;6.642;2022-12-07T12:33:06;12.73;;;5.65;;
28968;SDS011;16076;51.194;6.642;2022-12-07T12:35:41;9.90;;;5.32;;
28968;SDS011;16076;51.194;6.642;2022-12-07T12:38:26;13.05;;;4.93;;
28968;SDS011;16076;51.194;6.642;2022-12-07T12:43:45;12.90;;;5.13;;
28968;SDS011;16076;51.194;6.642;2022-12-07T12:48:55;17.13;;;5.82;;
28968;SDS011;16076;51.194;6.642;2022-12-07T12:51:43;14.48;;;5.65;;
28968;SDS011;16076;51.194;6.642;2022-12-07T12:54:18;15.48;;;6.25;;
28968;SDS011;16076;51.194;6.642;2022-12-07T12:59:42;19.58;;;5.57;;
28968;SDS011;16076;51.194;6.642;2022-12-07T13:02:32;11.38;;;5.00;;
28968;SDS011;16076;51.194;6.642;2022-12-07T13:20:54;14.45;;;5.18;;
28968;SDS011;16076;51.194;6.642;2022-12-07T13:23:37;10.80;;;5.22;;
28968;SDS011;16076;51.194;6.642;2022-12-07T13:28:43;16.77;;;4.72;;
28968;SDS011;16076;51.194;6.642;2022-12-07T13:33:51;10.73;;;5.22;;
28968;SDS011;16076;51.194;6.642;2022-12-07T13:36:27;16.73;;;5.05;;
28968;SDS011;16076;51.194;6.642;2022-12-07T13:38:54;13.10;;;5.20;;
28968;SDS011;16076;51.194;6.642;2022-12-07T13:41:23;15.90;;;5.90;;
28968;SDS011;16076;51.194;6.642;2022-12-07T13:43:55;14.38;;;5.20;;
28968;SDS011;16076;51.194;6.642;2022-12-07T13:46:25;14.02;;;4.53;;
28968;SDS011;16076;51.194;6.642;2022-12-07T13:49:15;11.48;;;4.57;;
28968;SDS011;16076;51.194;6.642;2022-12-07T13:51:52;11.68;;;4.75;;
28968;SDS011;16076;51.194;6.642;2022-12-07T13:54:19;10.23;;;5.13;;
28968;SDS011;16076;51.194;6.642;2022-12-07T13:56:50;10.25;;;4.10;;
28968;SDS011;16076;51.194;6.642;2022-12-07T13:59:24;8.82;;;4.72;;
28968;SDS011;16076;51.194;6.642;2022-12-07T14:01:52;10.93;;;3.72;;
28968;SDS011;16076;51.194;6.642;2022-12-07T14:04:19;11.48;;;3.90;;
28968;SDS011;16076;51.194;6.642;2022-12-07T14:07:00;11.27;;;4.05;;
28968;SDS011;16076;51.194;6.642;2022-12-07T14:09:52;11.13;;;4.10;;
28968;SDS011;16076;51.194;6.642;2022-12-07T14:12:29;13.38;;;4.28;;
28968;SDS011;16076;51.194;6.642;2022-12-07T14:14:55;10.55;;;4.20;;
28968;SDS011;16076;51.194;6.642;2022-12-07T14:17:24;13.38;;;4.07;;
28968;SDS011;16076;51.194;6.642;2022-12-07T14:22:26;11.10;;;4.67;;
28968;SDS011;16076;51.194;6.642;2022-12-07T14:25:43;11.70;;;4.32;;
28968;SDS011;16076;51.194;6.642;2022-12-07T14:27:51;9.82;;;4.25;;
28968;SDS011;16076;51.194;6.642;2022-12-07T14:30:20;12.32;;;4.25;;
28968;SDS011;16076;51.194;6.642;2022-12-07T14:32:46;9.90;;;4.13;;
28968;SDS011;16076;51.194;6.642;2022-12-07T14:35:17;5.83;;;4.13;;
28968;SDS011;16076;51.194;6.642;2022-12-07T14:37:44;9.40;;;3.60;;
28968;SDS011;16076;51.194;6.642;2022-12-07T14:40:15;10.52;;;3.53;;
28968;SDS011;16076;51.194;6.642;2022-12-07T14:42:55;12.32;;;4.55;;
28968;SDS011;16076;51.194;6.642;2022-12-07T14:45:26;8.25;;;3.47;;
28968;SDS011;16076;51.194;6.642;2022-12-07T14:47:52;9.23;;;3.60;;
28968;SDS011;16076;51.194;6.642;2022-12-07T14:50:18;8.85;;;3.28;;
28968;SDS011;16076;51.194;6.642;2022-12-07T14:52:46;10.68;;;3.88;;
28968;SDS011;16076;51.194;6.642;2022-12-07T14:55:22;8.05;;;3.60;;
28968;SDS011;16076;51.194;6.642;2022-12-07T14:57:52;10.07;;;3.80;;
28968;SDS011;16076;51.194;6.642;2022-12-07T15:00:18;16.75;;;4.20;;
28968;SDS011;16076;51.194;6.642;2022-12-07T15:02:48;11.98;;;3.38;;
28968;SDS011;16076;51.194;6.642;2022-12-07T15:05:15;8.93;;;3.75;;
28968;SDS011;16076;51.194;6.642;2022-12-07T15:07:41;10.27;;;3.25;;
28968;SDS011;16076;51.194;6.642;2022-12-07T15:12:45;12.05;;;3.78;;
28968;SDS011;16076;51.194;6.642;2022-12-07T15:15:11;6.55;;;3.40;;
28968;SDS011;16076;51.194;6.642;2022-12-07T15:17:38;7.72;;;3.80;;
28968;SDS011;16076;51.194;6.642;2022-12-07T15:20:04;8.98;;;3.83;;
28968;SDS011;16076;51.194;6.642;2022-12-07T15:22:30;14.50;;;4.22;;
28968;SDS011;16076;51.194;6.642;2022-12-07T15:24:56;12.18;;;5.20;;
28968;SDS011;16076;51.194;6.642;2022-12-07T15:27:22;15.35;;;5.78;;
28968;SDS011;16076;51.194;6.642;2022-12-07T15:29:48;11.85;;;6.25;;
28968;SDS011;16076;51.194;6.642;2022-12-07T15:32:15;8.90;;;5.63;;
28968;SDS011;16076;51.194;6.642;2022-12-07T15:34:41;11.85;;;5.18;;
28968;SDS011;16076;51.194;6.642;2022-12-07T15:37:07;10.48;;;5.95;;
28968;SDS011;16076;51.194;6.642;2022-12-07T15:39:33;10.90;;;5.13;;
28968;SDS011;16076;51.194;6.642;2022-12-07T15:42:01;11.35;;;5.07;;
28968;SDS011;16076;51.194;6.642;2022-12-07T15:44:27;14.77;;;5.00;;
28968;SDS011;16076;51.194;6.642;2022-12-07T15:47:11;15.02;;;4.63;;
28968;SDS011;16076;51.194;6.642;2022-12-07T15:49:37;7.88;;;4.28;;
28968;SDS011;16076;51.194;6.642;2022-12-07T15:52:02;9.10;;;4.47;;
28968;SDS011;16076;51.194;6.642;2022-12-07T15:54:28;7.97;;;4.15;;
28968;SDS011;16076;51.194;6.642;2022-12-07T15:56:57;11.57;;;4.75;;
28968;SDS011;16076;51.194;6.642;2022-12-07T15:59:23;8.77;;;4.35;;
28968;SDS011;16076;51.194;6.642;2022-12-07T16:01:50;8.27;;;4.90;;
28968;SDS011;16076;51.194;6.642;2022-12-07T16:04:15;8.85;;;5.38;;
28968;SDS011;16076;51.194;6.642;2022-12-07T16:06:41;13.57;;;4.57;;
28968;SDS011;16076;51.194;6.642;2022-12-07T16:09:07;12.60;;;5.65;;
28968;SDS011;16076;51.194;6.642;2022-12-07T16:11:32;12.82;;;5.20;;
28968;SDS011;16076;51.194;6.642;2022-12-07T16:13:58;8.65;;;5.20;;
28968;SDS011;16076;51.194;6.642;2022-12-07T16:16:24;13.90;;;4.97;;
28968;SDS011;16076;51.194;6.642;2022-12-07T16:18:50;8.88;;;5.07;;
28968;SDS011;16076;51.194;6.642;2022-12-07T16:21:17;9.25;;;5.72;;
28968;SDS011;16076;51.194;6.642;2022-12-07T16:23:43;10.73;;;5.90;;
28968;SDS011;16076;51.194;6.642;2022-12-07T16:26:13;11.48;;;5.50;;
28968;SDS011;16076;51.194;6.642;2022-12-07T16:28:41;11.70;;;5.90;;
28968;SDS011;16076;51.194;6.642;2022-12-07T16:31:08;11.13;;;6.40;;
28968;SDS011;16076;51.194;6.642;2022-12-07T16:33:39;12.43;;;7.30;;
28968;SDS011;16076;51.194;6.642;2022-12-07T16:36:06;16.15;;;7.85;;
28968;SDS011;16076;51.194;6.642;2022-12-07T16:38:33;14.45;;;7.35;;
28968;SDS011;16076;51.194;6.642;2022-12-07T16:40:59;16.70;;;7.18;;
28968;SDS011;16076;51.194;6.642;2022-12-07T16:43:25;17.90;;;8.88;;
28968;SDS011;16076;51.194;6.642;2022-12-07T16:45:51;13.40;;;7.65;;
28968;SDS011;16076;51.194;6.642;2022-12-07T16:48:17;15.10;;;8.10;;
28968;SDS011;16076;51.194;6.642;2022-12-07T16:50:43;16.80;;;8.93;;
28968;SDS011;16076;51.194;6.642;2022-12-07T16:53:13;13.63;;;8.35;;
28968;SDS011;16076;51.194;6.642;2022-12-07T16:55:40;16.42;;;8.50;;
28968;SDS011;16076;51.194;6.642;2022-12-07T16:58:08;19.52;;;9.50;;
28968;SDS011;16076;51.194;6.642;2022-12-07T17:00:33;19.63;;;9.90;;
28968;SDS011;16076;51.194;6.642;2022-12-07T17:03:01;21.45;;;9.75;;
28968;SDS011;16076;51.194;6.642;2022-12-07T17:05:27;24.58;;;11.77;;
28968;SDS011;16076;51.194;6.642;2022-12-07T17:07:55;18.90;;;9.75;;